createdAt,value
2023-05-10T06:37:08.825Z,100581.38
2023-05-10T06:39:35.203Z,100581.88
2023-05-10T06:42:02.673Z,100582.63
2023-05-10T06:44:29.053Z,100578.38
2023-05-10T06:46:56.690Z,100588.09
2023-05-10T06:49:23.094Z,100574.53
2023-05-10T06:51:49.991Z,100585.09
2023-05-10T06:54:16.367Z,100585.31
2023-05-10T06:56:42.729Z,100580.09
2023-05-10T06:59:09.111Z,100572.81
2023-05-10T07:01:35.589Z,100575.81
2023-05-10T07:04:01.998Z,100583.84
2023-05-10T07:06:33.509Z,100577.91
2023-05-10T07:09:01.331Z,100570.03
2023-05-10T07:11:27.762Z,100570.38
2023-05-10T07:13:54.153Z,100570.16
2023-05-10T07:16:20.653Z,100567.63
2023-05-10T07:18:47.121Z,100567.63
2023-05-10T07:21:13.531Z,100564.25
2023-05-10T07:23:39.988Z,100567.84
2023-05-10T07:26:06.368Z,100562.91
2023-05-10T07:28:32.769Z,100554.06
2023-05-10T07:30:59.197Z,100557.91
2023-05-10T07:33:25.619Z,100559.94
2023-05-10T07:35:51.983Z,100557.13
2023-05-10T07:38:18.453Z,100557.97
2023-05-10T07:40:44.877Z,100561.72
2023-05-10T07:43:11.309Z,100560.25
2023-05-10T07:45:37.755Z,100564.44
2023-05-10T07:48:04.193Z,100568.25
2023-05-10T07:50:30.742Z,100556.19
2023-05-10T07:52:57.486Z,100555.25
2023-05-10T07:55:23.852Z,100558.28
2023-05-10T07:57:50.259Z,100555.66
2023-05-10T08:00:21.121Z,100555.88
2023-05-10T08:02:48.186Z,100557.97
2023-05-10T08:05:15.681Z,100554.34
2023-05-10T08:07:43.303Z,100565.97
2023-05-10T08:10:11.929Z,100557.13
2023-05-10T08:12:39.198Z,100562.59
2023-05-10T08:15:06.209Z,100566.88
2023-05-10T08:17:32.719Z,100562.69
2023-05-10T08:19:59.120Z,100558.31
2023-05-10T08:22:25.508Z,100560.38
2023-05-10T08:24:51.928Z,100545.25
2023-05-10T08:27:18.383Z,100563.06
2023-05-10T08:29:50.212Z,100562.13
2023-05-10T08:32:17.139Z,100564.28
2023-05-10T08:34:43.639Z,100551.31
2023-05-10T08:37:11.458Z,100564.34
2023-05-10T08:39:38.234Z,100568.03
2023-05-10T08:42:05.712Z,100570.78
2023-05-10T08:44:33.490Z,100554.28
2023-05-10T08:47:03.408Z,100562.31
2023-05-10T08:49:32.650Z,100555.34
2023-05-10T08:52:02.776Z,100559.16
2023-05-10T08:54:29.212Z,100567.13
2023-05-10T08:56:55.780Z,100565.44
2023-05-10T08:59:22.525Z,100570.66
2023-05-10T09:01:50.356Z,100566.44
2023-05-10T09:04:17.498Z,100562.00
2023-05-10T09:06:44.053Z,100566.47
2023-05-10T09:09:10.908Z,100563.03
2023-05-10T09:11:37.483Z,100565.97
2023-05-10T09:14:04.008Z,100561.44
2023-05-10T09:16:30.585Z,100572.06
2023-05-10T09:18:57.085Z,100565.91
2023-05-10T09:21:23.512Z,100565.25
2023-05-10T09:23:51.223Z,100566.97
2023-05-10T09:26:18.396Z,100575.72
2023-05-10T09:28:53.430Z,100564.34
2023-05-10T09:31:20.151Z,100569.69
2023-05-10T09:33:47.984Z,100564.47
2023-05-10T09:36:14.901Z,100571.50
2023-05-10T09:38:55.713Z,100564.50
2023-05-10T09:41:24.104Z,100576.03
2023-05-10T09:43:50.746Z,100569.09
2023-05-10T09:46:17.481Z,100569.16
2023-05-10T09:48:48.554Z,100568.28
2023-05-10T09:51:25.768Z,100572.66
2023-05-10T09:54:11.140Z,100571.00
2023-05-10T09:56:41.275Z,100574.69
2023-05-10T09:59:10.276Z,100571.09
2023-05-10T10:01:37.453Z,100580.03
2023-05-10T10:04:05.926Z,100567.66
2023-05-10T10:06:39.922Z,100577.38
2023-05-10T10:09:07.440Z,100572.09
2023-05-10T10:11:38.558Z,100565.03
2023-05-10T10:14:06.208Z,100569.53
2023-05-10T10:16:33.172Z,100575.72
2023-05-10T10:18:59.777Z,100567.78
2023-05-10T10:21:26.534Z,100566.88
2023-05-10T10:23:53.965Z,100564.25
2023-05-10T10:26:22.511Z,100563.38
2023-05-10T10:29:13.888Z,100565.19
2023-05-10T10:31:47.098Z,100557.25
2023-05-10T10:34:27.939Z,100554.59
2023-05-10T10:36:55.632Z,100559.91
2023-05-10T10:39:22.172Z,100554.59
2023-05-10T10:41:52.807Z,100565.22
2023-05-10T10:44:31.871Z,100562.53
2023-05-10T10:47:19.400Z,100554.56
2023-05-10T10:50:03.227Z,100559.88
2023-05-10T10:52:35.154Z,100558.13
2023-05-10T10:55:12.001Z,100557.19
2023-05-10T10:57:41.327Z,100558.97
2023-05-10T11:00:28.086Z,100559.84
2023-05-10T11:03:07.274Z,100558.97
2023-05-10T11:05:33.670Z,100547.47
2023-05-10T11:08:01.212Z,100553.59
2023-05-10T11:10:28.189Z,100552.78
2023-05-10T11:13:03.976Z,100561.63
2023-05-10T11:15:32.315Z,100557.16
2023-05-10T11:17:58.874Z,100557.09
2023-05-10T11:20:34.044Z,100553.47
2023-05-10T11:23:13.807Z,100554.47
2023-05-10T11:25:45.059Z,100548.19
2023-05-10T11:28:13.670Z,100551.63
2023-05-10T11:30:41.421Z,100551.50
2023-05-10T11:33:09.171Z,100548.81
2023-05-10T11:35:42.484Z,100551.41
2023-05-10T11:38:11.171Z,100547.69
2023-05-10T11:40:38.611Z,100550.63
2023-05-10T11:43:05.499Z,100549.53
2023-05-10T11:45:35.921Z,100537.91
2023-05-10T11:48:03.577Z,100544.34
2023-05-10T11:50:30.036Z,100544.03
2023-05-10T11:52:58.018Z,100545.63
2023-05-10T11:55:25.253Z,100540.50
2023-05-10T11:57:55.730Z,100543.22
2023-05-10T12:00:22.471Z,100549.25
2023-05-10T12:02:49.744Z,100544.28
2023-05-10T12:05:17.220Z,100553.53
2023-05-10T12:07:43.859Z,100544.59
2023-05-10T12:10:13.163Z,100551.88
2023-05-10T12:12:43.040Z,100554.41
2023-05-10T12:15:17.698Z,100545.22
2023-05-10T12:17:45.645Z,100548.09
2023-05-10T12:20:17.547Z,100542.38
2023-05-10T12:22:50.409Z,100553.91
2023-05-10T12:25:17.453Z,100559.31
2023-05-10T12:27:52.514Z,100550.94
2023-05-10T12:30:26.861Z,100554.56
2023-05-10T12:32:54.141Z,100561.50
2023-05-10T12:35:22.953Z,100558.91
2023-05-10T12:37:49.328Z,100556.28
2023-05-10T12:40:15.857Z,100551.53
2023-05-10T12:42:42.457Z,100548.06
2023-05-10T12:45:09.781Z,100553.53
2023-05-10T12:47:36.766Z,100565.97
2023-05-10T12:50:04.126Z,100564.44
2023-05-10T12:52:32.964Z,100560.53
2023-05-10T12:55:00.574Z,100554.56
2023-05-10T12:57:28.030Z,100559.31
2023-05-10T12:59:55.057Z,100556.09
2023-05-10T13:02:22.239Z,100552.19
2023-05-10T13:04:50.922Z,100560.25
2023-05-10T13:07:17.564Z,100554.09
2023-05-10T13:09:44.332Z,100541.63
2023-05-10T13:12:10.817Z,100551.06
2023-05-10T13:14:37.197Z,100549.66
2023-05-10T13:17:03.628Z,100547.41
2023-05-10T13:19:30.075Z,100547.63
2023-05-10T13:21:56.510Z,100544.78
2023-05-10T13:24:23.242Z,100537.31
2023-05-10T13:26:49.691Z,100538.59
2023-05-10T13:29:18.346Z,100535.78
2023-05-10T13:31:44.898Z,100537.00
2023-05-10T13:34:11.291Z,100530.25
2023-05-10T13:36:37.803Z,100532.09
2023-05-10T13:39:06.180Z,100526.63
2023-05-10T13:41:32.758Z,100528.91
2023-05-10T13:43:59.242Z,100525.78
2023-05-10T13:46:25.733Z,100527.25
2023-05-10T13:48:52.197Z,100527.88
2023-05-10T13:51:18.632Z,100526.88
2023-05-10T13:53:45.020Z,100528.91
2023-05-10T13:56:11.415Z,100528.19
2023-05-10T13:58:37.977Z,100542.31
2023-05-10T14:01:05.803Z,100538.75
2023-05-10T14:03:32.327Z,100530.47
2023-05-10T14:05:58.999Z,100528.31
2023-05-10T14:08:25.374Z,100531.44
2023-05-10T14:10:53.214Z,100539.06
2023-05-10T14:13:19.606Z,100537.03
2023-05-10T14:15:46.030Z,100528.97
2023-05-10T14:18:12.438Z,100528.53
2023-05-10T14:20:38.872Z,100528.88
2023-05-10T14:23:05.343Z,100534.69
2023-05-10T14:25:31.782Z,100524.56
2023-05-10T14:27:58.350Z,100518.69
2023-05-10T14:30:24.745Z,100529.28
2023-05-10T14:32:51.269Z,100521.16
2023-05-10T14:35:19.428Z,100525.63
2023-05-10T14:37:46.383Z,100513.81
2023-05-10T14:40:13.347Z,100519.56
2023-05-10T14:42:39.761Z,100529.50
2023-05-10T14:45:06.608Z,100530.78
2023-05-10T14:47:33.027Z,100523.41
2023-05-10T14:49:59.471Z,100515.56
2023-05-10T14:52:25.977Z,100522.38
2023-05-10T14:54:52.577Z,100513.22
2023-05-10T14:57:18.963Z,100522.22
2023-05-10T14:59:45.312Z,100523.81
2023-05-10T15:02:12.492Z,100524.91
2023-05-10T15:04:39.328Z,100521.91
2023-05-10T15:07:06.710Z,100520.72
2023-05-10T15:09:33.086Z,100521.81
2023-05-10T15:11:59.486Z,100522.22
2023-05-10T15:14:25.884Z,100528.19
2023-05-10T15:16:52.267Z,100524.63
2023-05-10T15:19:18.711Z,100531.53
2023-05-10T15:21:45.563Z,100536.88
2023-05-10T15:24:12.004Z,100522.94
2023-05-10T15:26:38.408Z,100529.91
2023-05-10T15:29:04.858Z,100530.75
2023-05-10T15:31:31.373Z,100523.50
2023-05-10T15:33:59.916Z,100531.69
2023-05-10T15:36:26.288Z,100533.97
2023-05-10T15:38:53.832Z,100539.19
2023-05-10T15:41:22.167Z,100530.41
2023-05-10T15:43:48.792Z,100524.56
2023-05-10T15:46:15.229Z,100527.66
2023-05-10T15:48:41.644Z,100532.19
2023-05-10T15:51:07.992Z,100537.66
2023-05-10T15:53:34.363Z,100535.44
2023-05-10T15:56:00.821Z,100530.94
2023-05-10T15:58:27.230Z,100537.72
2023-05-10T16:00:53.774Z,100534.03
2023-05-10T16:03:23.257Z,100550.13
2023-05-10T16:05:49.629Z,100539.56
2023-05-10T16:08:16.005Z,100544.03
2023-05-10T16:10:42.406Z,100540.06
2023-05-10T16:13:08.833Z,100549.31
2023-05-10T16:15:35.219Z,100549.31
2023-05-10T16:18:01.725Z,100552.91
2023-05-10T16:20:28.250Z,100552.47
2023-05-10T16:22:54.640Z,100549.97
2023-05-10T16:25:21.227Z,100556.47
2023-05-10T16:27:47.606Z,100549.66
2023-05-10T16:30:14.272Z,100554.00
2023-05-10T16:32:40.659Z,100553.06
2023-05-10T16:35:07.754Z,100591.75
2023-05-10T16:37:34.148Z,100593.41
2023-05-10T16:40:00.650Z,100600.38
2023-05-10T16:42:28.126Z,100608.06
2023-05-10T16:44:54.862Z,100602.53
2023-05-10T16:47:21.243Z,100605.22
2023-05-10T16:49:47.669Z,100604.38
2023-05-10T16:52:14.084Z,100614.72
2023-05-10T16:54:40.436Z,100615.47
2023-05-10T16:57:07.348Z,100618.53
2023-05-10T16:59:33.964Z,100624.91
2023-05-10T17:02:00.443Z,100623.03
2023-05-10T17:04:27.050Z,100633.75
2023-05-10T17:06:53.437Z,100617.13
2023-05-10T17:09:20.567Z,100631.63
2023-05-10T17:11:47.101Z,100630.22
2023-05-10T17:14:13.491Z,100629.38
2023-05-10T17:16:39.996Z,100636.78
2023-05-10T17:19:06.630Z,100637.78
2023-05-10T17:21:33.050Z,100639.03
2023-05-10T17:23:59.442Z,100647.41
2023-05-10T17:26:27.468Z,100643.03
2023-05-10T17:28:54.638Z,100651.97
2023-05-10T17:31:21.071Z,100655.47
2023-05-10T17:33:47.472Z,100659.91
2023-05-10T17:36:13.844Z,100659.88
2023-05-10T17:38:40.235Z,100668.56
2023-05-10T17:41:06.659Z,100670.44
2023-05-10T17:43:33.030Z,100668.75
2023-05-10T17:45:59.601Z,100671.34
2023-05-10T17:48:26.069Z,100678.44
2023-05-10T17:50:52.510Z,100684.38
2023-05-10T17:53:19.287Z,100685.38
2023-05-10T17:55:45.681Z,100686.13
2023-05-10T17:58:12.559Z,100678.22
2023-05-10T18:00:39.133Z,100682.69
2023-05-10T18:03:05.846Z,100692.31
2023-05-10T18:05:36.123Z,100686.22
2023-05-10T18:08:03.207Z,100692.28
2023-05-10T18:10:29.649Z,100698.53
2023-05-10T18:12:56.771Z,100700.22
2023-05-10T18:15:23.785Z,100693.13
2023-05-10T18:17:50.452Z,100700.25
2023-05-10T18:20:16.869Z,100702.72
2023-05-10T18:22:43.373Z,100710.59
2023-05-10T18:25:10.230Z,100708.06
2023-05-10T18:27:36.732Z,100715.88
2023-05-10T18:30:03.164Z,100714.28
2023-05-10T18:32:29.654Z,100719.38
2023-05-10T18:34:57.368Z,100723.69
2023-05-10T18:37:23.978Z,100718.28
2023-05-10T18:39:50.772Z,100722.19
2023-05-10T18:42:17.466Z,100736.22
2023-05-10T18:44:43.886Z,100737.88
2023-05-10T18:47:10.241Z,100736.00
2023-05-10T18:49:36.610Z,100744.13
2023-05-10T18:52:03.020Z,100744.03
2023-05-10T18:54:29.974Z,100746.34
2023-05-10T18:56:57.300Z,100756.38
2023-05-10T18:59:23.776Z,100756.03
2023-05-10T19:01:51.294Z,100752.34
2023-05-10T19:04:17.912Z,100763.09
2023-05-10T19:06:44.445Z,100758.50
2023-05-10T19:09:10.888Z,100765.50
2023-05-10T19:11:37.293Z,100769.00
2023-05-10T19:14:05.632Z,100776.69
2023-05-10T19:16:35.860Z,100774.78
2023-05-10T19:19:02.816Z,100772.84
2023-05-10T19:21:31.156Z,100777.44
2023-05-10T19:23:58.454Z,100785.44
2023-05-10T19:26:24.823Z,100783.47
2023-05-10T19:28:52.409Z,100785.19
2023-05-10T19:31:19.735Z,100786.00
2023-05-10T19:33:46.876Z,100788.75
2023-05-10T19:36:13.423Z,100780.88
2023-05-10T19:38:39.882Z,100786.06
2023-05-10T19:41:06.286Z,100785.25
2023-05-10T19:43:38.312Z,100786.81
2023-05-10T19:46:04.683Z,100792.16
2023-05-10T19:48:31.730Z,100788.66
2023-05-10T19:51:02.996Z,100785.97
2023-05-10T19:53:29.869Z,100800.19
2023-05-10T19:55:56.406Z,100801.16
2023-05-10T19:58:23.435Z,100796.34
2023-05-10T20:00:50.005Z,100804.47
2023-05-10T20:03:16.608Z,100802.66
2023-05-10T20:05:43.036Z,100804.53
2023-05-10T20:08:09.400Z,100804.97
2023-05-10T20:10:35.813Z,100803.03
2023-05-10T20:13:02.196Z,100813.81
2023-05-10T20:15:29.008Z,100817.19
2023-05-10T20:17:55.462Z,100814.59
2023-05-10T20:20:22.091Z,100818.31
2023-05-10T20:22:48.605Z,100823.38
2023-05-10T20:25:16.203Z,100812.72
2023-05-10T20:27:43.068Z,100820.56
2023-05-10T20:30:10.406Z,100824.31
2023-05-10T20:32:37.920Z,100817.25
2023-05-10T20:35:05.316Z,100818.66
2023-05-10T20:37:31.786Z,100819.91
2023-05-10T20:39:58.210Z,100826.91
2023-05-10T20:42:24.641Z,100825.19
2023-05-10T20:44:51.111Z,100826.97
2023-05-10T20:47:18.069Z,100821.88
2023-05-10T20:49:44.429Z,100819.81
2023-05-10T20:52:10.827Z,100824.31
2023-05-10T20:54:37.220Z,100828.84
2023-05-10T20:57:03.615Z,100834.81
2023-05-10T20:59:29.984Z,100830.41
2023-05-10T21:01:57.306Z,100824.28
2023-05-10T21:04:24.590Z,100825.56
2023-05-10T21:06:51.639Z,100829.56
2023-05-10T21:09:18.046Z,100827.75
2023-05-10T21:11:44.484Z,100836.38
2023-05-10T21:14:10.921Z,100831.19
2023-05-10T21:16:37.361Z,100838.16
2023-05-10T21:19:03.805Z,100844.97
2023-05-10T21:21:30.357Z,100840.72
2023-05-10T21:23:56.738Z,100838.06
2023-05-10T21:26:23.233Z,100837.25
2023-05-10T21:28:49.651Z,100843.22
2023-05-10T21:31:16.080Z,100840.88
2023-05-10T21:33:42.487Z,100845.31
2023-05-10T21:36:09.513Z,100837.47
2023-05-10T21:38:35.981Z,100846.16
2023-05-10T21:41:06.790Z,100837.31
2023-05-10T21:43:33.474Z,100840.81
2023-05-10T21:45:59.915Z,100845.22
2023-05-10T21:48:26.399Z,100847.34
2023-05-10T21:50:52.773Z,100846.56
2023-05-10T21:53:19.693Z,100842.22
2023-05-10T21:55:46.081Z,100838.28
2023-05-10T21:58:12.482Z,100843.47
2023-05-10T22:00:38.916Z,100841.91
2023-05-10T22:03:05.504Z,100840.75
2023-05-10T22:05:32.076Z,100838.88
2023-05-10T22:07:58.459Z,100851.91
2023-05-10T22:10:24.840Z,100849.25
2023-05-10T22:12:51.647Z,100849.47
2023-05-10T22:15:18.154Z,100848.47
2023-05-10T22:17:44.593Z,100850.47
2023-05-10T22:20:11.090Z,100845.13
2023-05-10T22:22:37.556Z,100858.97
2023-05-10T22:25:08.342Z,100846.78
2023-05-10T22:27:34.966Z,100850.34
2023-05-10T22:30:01.560Z,100855.09
2023-05-10T22:32:28.062Z,100859.69
2023-05-10T22:34:54.535Z,100856.28
2023-05-10T22:37:20.909Z,100858.00
2023-05-10T22:39:47.275Z,100857.63
2023-05-10T22:42:13.652Z,100852.16
2023-05-10T22:44:40.035Z,100854.34
2023-05-10T22:47:06.803Z,100850.66
2023-05-10T22:49:33.715Z,100856.88
2023-05-10T22:52:00.523Z,100852.56
2023-05-10T22:54:27.178Z,100862.78
2023-05-10T22:56:53.853Z,100854.31
2023-05-10T22:59:20.654Z,100865.50
2023-05-10T23:01:48.849Z,100861.28
2023-05-10T23:04:15.783Z,100862.63
2023-05-10T23:06:42.206Z,100868.91
2023-05-10T23:09:08.983Z,100867.03
2023-05-10T23:11:35.362Z,100859.06
2023-05-10T23:14:01.786Z,100857.34
2023-05-10T23:16:28.177Z,100854.63
2023-05-10T23:18:54.774Z,100859.97
2023-05-10T23:21:21.452Z,100863.47
2023-05-10T23:23:47.994Z,100865.94
2023-05-10T23:26:14.435Z,100866.91
2023-05-10T23:28:41.034Z,100868.78
2023-05-10T23:31:07.398Z,100866.31
2023-05-10T23:33:33.782Z,100869.03
2023-05-10T23:36:00.176Z,100875.09
2023-05-10T23:38:26.964Z,100866.88
2023-05-10T23:40:53.447Z,100868.41
2023-05-10T23:43:20.766Z,100870.47
2023-05-10T23:45:54.733Z,100864.09
2023-05-10T23:48:21.527Z,100874.38
2023-05-10T23:50:47.915Z,100868.59
2023-05-10T23:53:14.380Z,100872.66
2023-05-10T23:55:40.758Z,100869.25
2023-05-10T23:58:07.120Z,100867.50
